sensor_id;sensor_type;location;lat;lon;timestamp;P1;durP1;ratioP1;P2;durP2;ratioP2
2213;SDS011;1113;42.018;23.986;2022-10-22T00:01:38;60.65;;;39.63;;
2213;SDS011;1113;42.018;23.986;2022-10-22T00:04:04;48.33;;;33.88;;
2213;SDS011;1113;42.018;23.986;2022-10-22T00:06:31;51.22;;;34.53;;
2213;SDS011;1113;42.018;23.986;2022-10-22T00:08:58;39.78;;;28.17;;
2213;SDS011;1113;42.018;23.986;2022-10-22T00:11:25;45.30;;;31.85;;
2213;SDS011;1113;42.018;23.986;2022-10-22T00:13:53;46.53;;;32.17;;
2213;SDS011;1113;42.018;23.986;2022-10-22T00:16:20;47.88;;;32.70;;
2213;SDS011;1113;42.018;23.986;2022-10-22T00:18:47;49.17;;;33.83;;
2213;SDS011;1113;42.018;23.986;2022-10-22T00:21:14;47.47;;;32.28;;
2213;SDS011;1113;42.018;23.986;2022-10-22T00:23:41;45.47;;;32.50;;
2213;SDS011;1113;42.018;23.986;2022-10-22T00:26:08;46.60;;;33.70;;
2213;SDS011;1113;42.018;23.986;2022-10-22T00:28:36;43.15;;;32.35;;
2213;SDS011;1113;42.018;23.986;2022-10-22T00:31:04;49.85;;;32.50;;
2213;SDS011;1113;42.018;23.986;2022-10-22T00:33:31;42.67;;;31.13;;
2213;SDS011;1113;42.018;23.986;2022-10-22T00:35:59;44.88;;;31.75;;
2213;SDS011;1113;42.018;23.986;2022-10-22T00:38:26;37.70;;;29.25;;
2213;SDS011;1113;42.018;23.986;2022-10-22T00:40:52;40.03;;;28.10;;
2213;SDS011;1113;42.018;23.986;2022-10-22T00:43:19;38.63;;;28.98;;
2213;SDS011;1113;42.018;23.986;2022-10-22T00:45:46;38.53;;;28.63;;
2213;SDS011;1113;42.018;23.986;2022-10-22T00:48:15;40.08;;;27.88;;
2213;SDS011;1113;42.018;23.986;2022-10-22T00:50:46;40.72;;;29.45;;
2213;SDS011;1113;42.018;23.986;2022-10-22T00:53:20;47.88;;;33.20;;
2213;SDS011;1113;42.018;23.986;2022-10-22T00:55:50;40.47;;;30.92;;
2213;SDS011;1113;42.018;23.986;2022-10-22T00:58:19;40.88;;;29.58;;
2213;SDS011;1113;42.018;23.986;2022-10-22T01:00:49;38.10;;;28.50;;
2213;SDS011;1113;42.018;23.986;2022-10-22T01:03:18;39.10;;;27.65;;
2213;SDS011;1113;42.018;23.986;2022-10-22T01:05:45;38.45;;;27.15;;
2213;SDS011;1113;42.018;23.986;2022-10-22T01:08:21;36.75;;;26.23;;
2213;SDS011;1113;42.018;23.986;2022-10-22T01:11:01;44.50;;;28.10;;
2213;SDS011;1113;42.018;23.986;2022-10-22T01:13:42;38.58;;;28.35;;
2213;SDS011;1113;42.018;23.986;2022-10-22T01:16:20;41.63;;;28.40;;
2213;SDS011;1113;42.018;23.986;2022-10-22T01:18:56;41.05;;;26.77;;
2213;SDS011;1113;42.018;23.986;2022-10-22T01:21:31;46.22;;;34.05;;
2213;SDS011;1113;42.018;23.986;2022-10-22T01:24:13;40.72;;;28.15;;
2213;SDS011;1113;42.018;23.986;2022-10-22T01:26:53;41.15;;;29.25;;
2213;SDS011;1113;42.018;23.986;2022-10-22T01:29:28;47.20;;;34.65;;
2213;SDS011;1113;42.018;23.986;2022-10-22T01:31:59;46.70;;;32.65;;
2213;SDS011;1113;42.018;23.986;2022-10-22T01:34:30;43.05;;;28.92;;
2213;SDS011;1113;42.018;23.986;2022-10-22T01:36:58;47.90;;;31.35;;
2213;SDS011;1113;42.018;23.986;2022-10-22T01:39:27;39.78;;;29.55;;
2213;SDS011;1113;42.018;23.986;2022-10-22T01:41:56;41.92;;;28.48;;
2213;SDS011;1113;42.018;23.986;2022-10-22T01:44:24;42.88;;;29.75;;
2213;SDS011;1113;42.018;23.986;2022-10-22T01:46:55;43.92;;;29.75;;
2213;SDS011;1113;42.018;23.986;2022-10-22T01:49:31;41.20;;;30.05;;
2213;SDS011;1113;42.018;23.986;2022-10-22T01:52:08;41.38;;;28.45;;
2213;SDS011;1113;42.018;23.986;2022-10-22T01:54:48;44.63;;;30.65;;
2213;SDS011;1113;42.018;23.986;2022-10-22T01:57:22;43.67;;;30.80;;
2213;SDS011;1113;42.018;23.986;2022-10-22T01:59:57;45.25;;;29.73;;
2213;SDS011;1113;42.018;23.986;2022-10-22T02:02:31;42.33;;;28.83;;
2213;SDS011;1113;42.018;23.986;2022-10-22T02:05:02;40.33;;;28.17;;
2213;SDS011;1113;42.018;23.986;2022-10-22T02:07:35;46.28;;;30.73;;
2213;SDS011;1113;42.018;23.986;2022-10-22T02:10:06;41.25;;;28.95;;
2213;SDS011;1113;42.018;23.986;2022-10-22T02:12:34;46.90;;;31.15;;
2213;SDS011;1113;42.018;23.986;2022-10-22T02:15:04;42.38;;;31.38;;
2213;SDS011;1113;42.018;23.986;2022-10-22T02:17:34;41.10;;;29.75;;
2213;SDS011;1113;42.018;23.986;2022-10-22T02:20:04;42.20;;;30.20;;
2213;SDS011;1113;42.018;23.986;2022-10-22T02:22:35;49.47;;;36.40;;
2213;SDS011;1113;42.018;23.986;2022-10-22T02:25:03;44.85;;;34.00;;
2213;SDS011;1113;42.018;23.986;2022-10-22T02:27:34;48.78;;;32.92;;
2213;SDS011;1113;42.018;23.986;2022-10-22T02:30:07;47.90;;;31.20;;
2213;SDS011;1113;42.018;23.986;2022-10-22T02:32:38;46.20;;;33.95;;
2213;SDS011;1113;42.018;23.986;2022-10-22T02:35:09;42.70;;;30.10;;
2213;SDS011;1113;42.018;23.986;2022-10-22T02:37:40;43.78;;;29.88;;
2213;SDS011;1113;42.018;23.986;2022-10-22T02:40:08;46.35;;;32.95;;
2213;SDS011;1113;42.018;23.986;2022-10-22T02:42:36;43.08;;;32.13;;
2213;SDS011;1113;42.018;23.986;2022-10-22T02:45:05;47.13;;;32.83;;
2213;SDS011;1113;42.018;23.986;2022-10-22T02:47:32;52.80;;;34.85;;
2213;SDS011;1113;42.018;23.986;2022-10-22T02:50:00;51.42;;;33.55;;
2213;SDS011;1113;42.018;23.986;2022-10-22T02:52:29;48.20;;;35.38;;
2213;SDS011;1113;42.018;23.986;2022-10-22T02:54:56;48.97;;;32.92;;
2213;SDS011;1113;42.018;23.986;2022-10-22T02:57:23;51.20;;;33.92;;
2213;SDS011;1113;42.018;23.986;2022-10-22T02:59:50;51.67;;;34.95;;
2213;SDS011;1113;42.018;23.986;2022-10-22T03:02:16;45.80;;;33.20;;
2213;SDS011;1113;42.018;23.986;2022-10-22T03:04:43;52.60;;;35.75;;
2213;SDS011;1113;42.018;23.986;2022-10-22T03:07:11;52.08;;;35.50;;
2213;SDS011;1113;42.018;23.986;2022-10-22T03:09:38;49.08;;;33.65;;
2213;SDS011;1113;42.018;23.986;2022-10-22T03:12:05;46.70;;;33.15;;
2213;SDS011;1113;42.018;23.986;2022-10-22T03:14:32;49.42;;;35.42;;
2213;SDS011;1113;42.018;23.986;2022-10-22T03:16:59;53.33;;;38.08;;
2213;SDS011;1113;42.018;23.986;2022-10-22T03:19:26;51.45;;;38.38;;
2213;SDS011;1113;42.018;23.986;2022-10-22T03:21:54;64.10;;;47.67;;
2213;SDS011;1113;42.018;23.986;2022-10-22T03:24:25;67.22;;;49.22;;
2213;SDS011;1113;42.018;23.986;2022-10-22T03:26:54;59.55;;;42.30;;
2213;SDS011;1113;42.018;23.986;2022-10-22T03:29:21;56.08;;;41.10;;
2213;SDS011;1113;42.018;23.986;2022-10-22T03:31:51;57.00;;;41.35;;
2213;SDS011;1113;42.018;23.986;2022-10-22T03:34:18;57.63;;;41.70;;
2213;SDS011;1113;42.018;23.986;2022-10-22T03:36:45;68.60;;;44.97;;
2213;SDS011;1113;42.018;23.986;2022-10-22T03:39:13;61.90;;;44.17;;
2213;SDS011;1113;42.018;23.986;2022-10-22T03:41:43;61.38;;;43.58;;
2213;SDS011;1113;42.018;23.986;2022-10-22T03:44:11;62.55;;;42.00;;
2213;SDS011;1113;42.018;23.986;2022-10-22T03:46:39;62.15;;;44.13;;
2213;SDS011;1113;42.018;23.986;2022-10-22T03:49:06;58.83;;;43.40;;
2213;SDS011;1113;42.018;23.986;2022-10-22T03:51:33;55.35;;;43.08;;
2213;SDS011;1113;42.018;23.986;2022-10-22T03:54:00;61.20;;;42.05;;
2213;SDS011;1113;42.018;23.986;2022-10-22T03:56:27;59.60;;;41.65;;
2213;SDS011;1113;42.018;23.986;2022-10-22T03:58:56;58.13;;;41.28;;
2213;SDS011;1113;42.018;23.986;2022-10-22T04:01:24;53.63;;;38.83;;
2213;SDS011;1113;42.018;23.986;2022-10-22T04:03:51;56.97;;;39.30;;
2213;SDS011;1113;42.018;23.986;2022-10-22T04:06:18;51.00;;;37.15;;
2213;SDS011;1113;42.018;23.986;2022-10-22T04:08:45;51.33;;;38.97;;
2213;SDS011;1113;42.018;23.986;2022-10-22T04:11:12;51.30;;;36.72;;
2213;SDS011;1113;42.018;23.986;2022-10-22T04:13:40;50.50;;;37.50;;
2213;SDS011;1113;42.018;23.986;2022-10-22T04:16:09;60.42;;;41.95;;
2213;SDS011;1113;42.018;23.986;2022-10-22T04:18:37;52.33;;;41.20;;
2213;SDS011;1113;42.018;23.986;2022-10-22T04:21:05;59.00;;;43.13;;
2213;SDS011;1113;42.018;23.986;2022-10-22T04:23:33;60.35;;;45.13;;
2213;SDS011;1113;42.018;23.986;2022-10-22T04:26:00;57.05;;;44.17;;
2213;SDS011;1113;42.018;23.986;2022-10-22T04:28:28;57.30;;;43.72;;
2213;SDS011;1113;42.018;23.986;2022-10-22T04:30:55;61.00;;;44.95;;
2213;SDS011;1113;42.018;23.986;2022-10-22T04:33:24;78.90;;;49.67;;
2213;SDS011;1113;42.018;23.986;2022-10-22T04:35:51;63.78;;;48.05;;
2213;SDS011;1113;42.018;23.986;2022-10-22T04:38:18;74.45;;;53.50;;
2213;SDS011;1113;42.018;23.986;2022-10-22T04:40:44;78.20;;;54.58;;
2213;SDS011;1113;42.018;23.986;2022-10-22T04:43:11;78.93;;;48.83;;
2213;SDS011;1113;42.018;23.986;2022-10-22T04:45:38;66.80;;;49.05;;
2213;SDS011;1113;42.018;23.986;2022-10-22T04:48:05;63.97;;;47.40;;
2213;SDS011;1113;42.018;23.986;2022-10-22T04:50:33;67.15;;;49.40;;
2213;SDS011;1113;42.018;23.986;2022-10-22T04:53:00;77.13;;;52.28;;
2213;SDS011;1113;42.018;23.986;2022-10-22T04:55:27;68.93;;;47.50;;
2213;SDS011;1113;42.018;23.986;2022-10-22T04:57:54;76.40;;;51.70;;
2213;SDS011;1113;42.018;23.986;2022-10-22T05:00:21;67.90;;;50.95;;
2213;SDS011;1113;42.018;23.986;2022-10-22T05:02:48;67.60;;;52.80;;
2213;SDS011;1113;42.018;23.986;2022-10-22T05:05:15;75.78;;;53.15;;
2213;SDS011;1113;42.018;23.986;2022-10-22T05:07:43;79.20;;;57.00;;
2213;SDS011;1113;42.018;23.986;2022-10-22T05:10:10;74.47;;;56.10;;
2213;SDS011;1113;42.018;23.986;2022-10-22T05:12:37;67.07;;;54.65;;
2213;SDS011;1113;42.018;23.986;2022-10-22T05:15:04;67.28;;;52.00;;
2213;SDS011;1113;42.018;23.986;2022-10-22T05:17:34;75.75;;;55.72;;
2213;SDS011;1113;42.018;23.986;2022-10-22T05:20:01;71.57;;;54.22;;
2213;SDS011;1113;42.018;23.986;2022-10-22T05:22:30;75.47;;;56.00;;
2213;SDS011;1113;42.018;23.986;2022-10-22T05:25:00;86.32;;;61.70;;
2213;SDS011;1113;42.018;23.986;2022-10-22T05:27:27;119.93;;;71.32;;
2213;SDS011;1113;42.018;23.986;2022-10-22T05:29:56;104.93;;;76.70;;
2213;SDS011;1113;42.018;23.986;2022-10-22T05:32:23;101.65;;;71.43;;
2213;SDS011;1113;42.018;23.986;2022-10-22T05:34:50;104.20;;;66.03;;
2213;SDS011;1113;42.018;23.986;2022-10-22T05:37:17;101.05;;;63.72;;
2213;SDS011;1113;42.018;23.986;2022-10-22T05:39:44;98.60;;;60.20;;
2213;SDS011;1113;42.018;23.986;2022-10-22T05:42:12;95.47;;;63.70;;
2213;SDS011;1113;42.018;23.986;2022-10-22T05:44:38;96.45;;;65.35;;
2213;SDS011;1113;42.018;23.986;2022-10-22T05:47:05;115.32;;;72.72;;
2213;SDS011;1113;42.018;23.986;2022-10-22T05:49:34;102.85;;;68.80;;
2213;SDS011;1113;42.018;23.986;2022-10-22T05:52:00;99.60;;;66.45;;
2213;SDS011;1113;42.018;23.986;2022-10-22T05:54:27;103.55;;;67.68;;
2213;SDS011;1113;42.018;23.986;2022-10-22T05:56:54;85.85;;;61.25;;
2213;SDS011;1113;42.018;23.986;2022-10-22T05:59:22;90.60;;;63.85;;
2213;SDS011;1113;42.018;23.986;2022-10-22T06:01:49;92.47;;;65.35;;
2213;SDS011;1113;42.018;23.986;2022-10-22T06:04:16;92.47;;;65.50;;
2213;SDS011;1113;42.018;23.986;2022-10-22T06:06:43;88.68;;;61.13;;
2213;SDS011;1113;42.018;23.986;2022-10-22T06:09:12;83.47;;;56.30;;
2213;SDS011;1113;42.018;23.986;2022-10-22T06:11:42;75.85;;;54.42;;
2213;SDS011;1113;42.018;23.986;2022-10-22T06:14:09;85.00;;;58.63;;
2213;SDS011;1113;42.018;23.986;2022-10-22T06:16:38;84.63;;;62.88;;
2213;SDS011;1113;42.018;23.986;2022-10-22T06:19:05;102.75;;;71.68;;
2213;SDS011;1113;42.018;23.986;2022-10-22T06:21:33;92.40;;;65.97;;
2213;SDS011;1113;42.018;23.986;2022-10-22T06:24:00;91.15;;;57.88;;
2213;SDS011;1113;42.018;23.986;2022-10-22T06:26:28;84.75;;;60.17;;
2213;SDS011;1113;42.018;23.986;2022-10-22T06:28:55;82.38;;;58.25;;
2213;SDS011;1113;42.018;23.986;2022-10-22T06:31:23;78.65;;;56.53;;
2213;SDS011;1113;42.018;23.986;2022-10-22T06:33:53;87.00;;;57.00;;
2213;SDS011;1113;42.018;23.986;2022-10-22T06:36:21;76.10;;;54.55;;
2213;SDS011;1113;42.018;23.986;2022-10-22T06:38:50;70.85;;;52.30;;
2213;SDS011;1113;42.018;23.986;2022-10-22T06:41:17;74.05;;;52.15;;
2213;SDS011;1113;42.018;23.986;2022-10-22T06:43:44;68.68;;;51.85;;
2213;SDS011;1113;42.018;23.986;2022-10-22T06:46:12;77.88;;;52.22;;
2213;SDS011;1113;42.018;23.986;2022-10-22T06:48:40;72.35;;;52.53;;
2213;SDS011;1113;42.018;23.986;2022-10-22T06:51:10;69.15;;;52.05;;
2213;SDS011;1113;42.018;23.986;2022-10-22T06:53:37;78.07;;;54.63;;
2213;SDS011;1113;42.018;23.986;2022-10-22T06:56:05;69.72;;;47.85;;
2213;SDS011;1113;42.018;23.986;2022-10-22T06:58:32;70.15;;;48.03;;
2213;SDS011;1113;42.018;23.986;2022-10-22T07:01:00;64.22;;;44.50;;
2213;SDS011;1113;42.018;23.986;2022-10-22T07:03:27;60.67;;;43.88;;
2213;SDS011;1113;42.018;23.986;2022-10-22T07:05:54;51.55;;;37.90;;
2213;SDS011;1113;42.018;23.986;2022-10-22T07:08:26;49.60;;;36.08;;
2213;SDS011;1113;42.018;23.986;2022-10-22T07:10:53;48.05;;;35.92;;
2213;SDS011;1113;42.018;23.986;2022-10-22T07:13:20;45.38;;;34.33;;
2213;SDS011;1113;42.018;23.986;2022-10-22T07:15:50;46.90;;;36.92;;
2213;SDS011;1113;42.018;23.986;2022-10-22T07:18:17;50.13;;;40.03;;
2213;SDS011;1113;42.018;23.986;2022-10-22T07:20:45;53.50;;;42.00;;
2213;SDS011;1113;42.018;23.986;2022-10-22T07:23:13;56.13;;;40.25;;
2213;SDS011;1113;42.018;23.986;2022-10-22T07:25:41;50.33;;;41.30;;
2213;SDS011;1113;42.018;23.986;2022-10-22T07:28:08;51.63;;;40.55;;
2213;SDS011;1113;42.018;23.986;2022-10-22T07:30:35;56.97;;;44.25;;
2213;SDS011;1113;42.018;23.986;2022-10-22T07:33:03;58.00;;;46.97;;
2213;SDS011;1113;42.018;23.986;2022-10-22T07:35:30;62.88;;;48.08;;
2213;SDS011;1113;42.018;23.986;2022-10-22T07:37:58;63.70;;;49.28;;
2213;SDS011;1113;42.018;23.986;2022-10-22T07:40:25;59.58;;;47.78;;
2213;SDS011;1113;42.018;23.986;2022-10-22T07:42:53;52.92;;;42.20;;
2213;SDS011;1113;42.018;23.986;2022-10-22T07:45:20;56.97;;;42.50;;
2213;SDS011;1113;42.018;23.986;2022-10-22T07:47:47;48.80;;;40.35;;
2213;SDS011;1113;42.018;23.986;2022-10-22T07:50:15;50.63;;;39.03;;
2213;SDS011;1113;42.018;23.986;2022-10-22T07:52:42;41.97;;;30.27;;
2213;SDS011;1113;42.018;23.986;2022-10-22T07:55:09;38.83;;;29.33;;
2213;SDS011;1113;42.018;23.986;2022-10-22T07:57:37;41.20;;;32.80;;
2213;SDS011;1113;42.018;23.986;2022-10-22T08:00:05;39.37;;;29.43;;
2213;SDS011;1113;42.018;23.986;2022-10-22T08:02:33;28.80;;;23.27;;
2213;SDS011;1113;42.018;23.986;2022-10-22T08:05:00;30.47;;;23.20;;
2213;SDS011;1113;42.018;23.986;2022-10-22T08:07:27;29.07;;;23.87;;
2213;SDS011;1113;42.018;23.986;2022-10-22T08:09:54;35.67;;;24.23;;
2213;SDS011;1113;42.018;23.986;2022-10-22T08:12:21;29.70;;;23.17;;
2213;SDS011;1113;42.018;23.986;2022-10-22T08:14:47;30.50;;;23.83;;
2213;SDS011;1113;42.018;23.986;2022-10-22T08:17:16;30.50;;;24.67;;
2213;SDS011;1113;42.018;23.986;2022-10-22T08:19:43;30.53;;;24.27;;
2213;SDS011;1113;42.018;23.986;2022-10-22T08:22:10;31.40;;;23.43;;
2213;SDS011;1113;42.018;23.986;2022-10-22T08:24:37;30.00;;;24.80;;
2213;SDS011;1113;42.018;23.986;2022-10-22T08:27:04;27.67;;;20.83;;
2213;SDS011;1113;42.018;23.986;2022-10-22T08:29:31;25.80;;;18.33;;
2213;SDS011;1113;42.018;23.986;2022-10-22T08:31:58;20.97;;;15.93;;
2213;SDS011;1113;42.018;23.986;2022-10-22T08:34:28;18.13;;;14.60;;
2213;SDS011;1113;42.018;23.986;2022-10-22T08:36:55;23.37;;;14.93;;
2213;SDS011;1113;42.018;23.986;2022-10-22T08:39:22;18.20;;;14.10;;
2213;SDS011;1113;42.018;23.986;2022-10-22T08:41:51;21.60;;;16.70;;
2213;SDS011;1113;42.018;23.986;2022-10-22T08:47:29;19.10;;;15.20;;
2213;SDS011;1113;42.018;23.986;2022-10-22T08:50:09;18.33;;;14.90;;
2213;SDS011;1113;42.018;23.986;2022-10-22T08:52:38;16.83;;;14.33;;
2213;SDS011;1113;42.018;23.986;2022-10-22T08:55:08;20.10;;;15.17;;
2213;SDS011;1113;42.018;23.986;2022-10-22T08:57:42;17.93;;;15.60;;
2213;SDS011;1113;42.018;23.986;2022-10-22T09:00:17;15.53;;;13.50;;
2213;SDS011;1113;42.018;23.986;2022-10-22T09:02:51;12.37;;;10.50;;
2213;SDS011;1113;42.018;23.986;2022-10-22T09:05:31;13.50;;;10.87;;
2213;SDS011;1113;42.018;23.986;2022-10-22T09:08:06;11.80;;;10.60;;
2213;SDS011;1113;42.018;23.986;2022-10-22T09:10:36;17.03;;;10.57;;
2213;SDS011;1113;42.018;23.986;2022-10-22T09:13:07;16.43;;;12.93;;
2213;SDS011;1113;42.018;23.986;2022-10-22T09:15:35;22.40;;;14.17;;
2213;SDS011;1113;42.018;23.986;2022-10-22T09:18:05;15.93;;;13.40;;
2213;SDS011;1113;42.018;23.986;2022-10-22T09:20:44;15.90;;;14.30;;
2213;SDS011;1113;42.018;23.986;2022-10-22T09:23:20;16.23;;;14.00;;
2213;SDS011;1113;42.018;23.986;2022-10-22T09:25:52;10.53;;;8.93;;
2213;SDS011;1113;42.018;23.986;2022-10-22T09:28:19;16.23;;;10.80;;
2213;SDS011;1113;42.018;23.986;2022-10-22T09:30:46;10.33;;;9.23;;
2213;SDS011;1113;42.018;23.986;2022-10-22T09:33:14;11.60;;;9.10;;
2213;SDS011;1113;42.018;23.986;2022-10-22T09:35:45;12.13;;;9.73;;
2213;SDS011;1113;42.018;23.986;2022-10-22T09:38:14;8.80;;;7.90;;
2213;SDS011;1113;42.018;23.986;2022-10-22T09:40:45;11.17;;;8.77;;
2213;SDS011;1113;42.018;23.986;2022-10-22T09:43:14;11.47;;;9.00;;
2213;SDS011;1113;42.018;23.986;2022-10-22T09:45:41;9.90;;;8.90;;
2213;SDS011;1113;42.018;23.986;2022-10-22T09:48:27;12.10;;;9.50;;
2213;SDS011;1113;42.018;23.986;2022-10-22T09:50:58;10.27;;;9.17;;
2213;SDS011;1113;42.018;23.986;2022-10-22T09:53:30;10.57;;;9.30;;
2213;SDS011;1113;42.018;23.986;2022-10-22T09:56:05;12.40;;;11.20;;
2213;SDS011;1113;42.018;23.986;2022-10-22T09:58:40;14.53;;;12.20;;
2213;SDS011;1113;42.018;23.986;2022-10-22T10:01:14;14.57;;;13.07;;
2213;SDS011;1113;42.018;23.986;2022-10-22T10:03:43;13.03;;;11.57;;
2213;SDS011;1113;42.018;23.986;2022-10-22T10:06:12;9.13;;;8.23;;
2213;SDS011;1113;42.018;23.986;2022-10-22T10:08:43;11.70;;;7.97;;
2213;SDS011;1113;42.018;23.986;2022-10-22T10:11:11;12.00;;;8.67;;
2213;SDS011;1113;42.018;23.986;2022-10-22T10:13:45;10.50;;;8.97;;
2213;SDS011;1113;42.018;23.986;2022-10-22T10:16:23;8.93;;;7.53;;
2213;SDS011;1113;42.018;23.986;2022-10-22T10:19:00;10.20;;;8.47;;
2213;SDS011;1113;42.018;23.986;2022-10-22T10:21:40;9.43;;;7.80;;
2213;SDS011;1113;42.018;23.986;2022-10-22T10:24:17;9.20;;;7.73;;
2213;SDS011;1113;42.018;23.986;2022-10-22T10:26:56;8.53;;;7.63;;
2213;SDS011;1113;42.018;23.986;2022-10-22T10:29:32;14.33;;;8.10;;
2213;SDS011;1113;42.018;23.986;2022-10-22T10:32:15;9.17;;;7.70;;
2213;SDS011;1113;42.018;23.986;2022-10-22T10:34:54;8.70;;;7.90;;
2213;SDS011;1113;42.018;23.986;2022-10-22T10:37:31;12.90;;;8.23;;
2213;SDS011;1113;42.018;23.986;2022-10-22T10:40:10;9.40;;;8.20;;
2213;SDS011;1113;42.018;23.986;2022-10-22T10:42:47;10.90;;;8.53;;
2213;SDS011;1113;42.018;23.986;2022-10-22T10:45:20;13.83;;;11.30;;
2213;SDS011;1113;42.018;23.986;2022-10-22T10:48:14;12.20;;;9.50;;
2213;SDS011;1113;42.018;23.986;2022-10-22T10:51:03;60.37;;;12.60;;
2213;SDS011;1113;42.018;23.986;2022-10-22T10:53:46;10.60;;;8.13;;
2213;SDS011;1113;42.018;23.986;2022-10-22T10:56:31;12.10;;;9.33;;
2213;SDS011;1113;42.018;23.986;2022-10-22T10:59:07;14.13;;;9.90;;
2213;SDS011;1113;42.018;23.986;2022-10-22T11:01:41;13.03;;;9.23;;
2213;SDS011;1113;42.018;23.986;2022-10-22T11:04:41;11.20;;;7.40;;
2213;SDS011;1113;42.018;23.986;2022-10-22T11:07:21;10.87;;;8.20;;
2213;SDS011;1113;42.018;23.986;2022-10-22T11:09:56;15.73;;;9.20;;
2213;SDS011;1113;42.018;23.986;2022-10-22T11:12:30;11.33;;;9.40;;
2213;SDS011;1113;42.018;23.986;2022-10-22T11:15:02;9.30;;;7.70;;
2213;SDS011;1113;42.018;23.986;2022-10-22T11:17:35;9.87;;;7.70;;
2213;SDS011;1113;42.018;23.986;2022-10-22T11:20:11;15.53;;;8.43;;
2213;SDS011;1113;42.018;23.986;2022-10-22T11:22:44;11.00;;;7.90;;
2213;SDS011;1113;42.018;23.986;2022-10-22T11:25:17;9.90;;;7.77;;
2213;SDS011;1113;42.018;23.986;2022-10-22T11:27:49;7.70;;;7.00;;
2213;SDS011;1113;42.018;23.986;2022-10-22T11:30:19;13.10;;;7.63;;
2213;SDS011;1113;42.018;23.986;2022-10-22T11:32:48;9.30;;;7.47;;
2213;SDS011;1113;42.018;23.986;2022-10-22T11:35:19;7.50;;;6.73;;
2213;SDS011;1113;42.018;23.986;2022-10-22T11:37:49;10.50;;;8.03;;
2213;SDS011;1113;42.018;23.986;2022-10-22T11:40:21;10.03;;;7.60;;
2213;SDS011;1113;42.018;23.986;2022-10-22T11:42:57;8.30;;;7.40;;
2213;SDS011;1113;42.018;23.986;2022-10-22T11:45:29;7.03;;;6.33;;
2213;SDS011;1113;42.018;23.986;2022-10-22T11:48:04;8.90;;;7.00;;
2213;SDS011;1113;42.018;23.986;2022-10-22T11:50:47;8.03;;;6.20;;
2213;SDS011;1113;42.018;23.986;2022-10-22T11:53:17;8.90;;;7.40;;
2213;SDS011;1113;42.018;23.986;2022-10-22T11:55:53;8.30;;;7.20;;
2213;SDS011;1113;42.018;23.986;2022-10-22T11:58:25;23.30;;;8.07;;
2213;SDS011;1113;42.018;23.986;2022-10-22T12:00:55;7.67;;;6.97;;
2213;SDS011;1113;42.018;23.986;2022-10-22T12:03:23;8.47;;;7.57;;
2213;SDS011;1113;42.018;23.986;2022-10-22T12:06:14;27.43;;;7.70;;
2213;SDS011;1113;42.018;23.986;2022-10-22T12:08:45;7.80;;;6.73;;
2213;SDS011;1113;42.018;23.986;2022-10-22T12:11:20;8.40;;;7.50;;
2213;SDS011;1113;42.018;23.986;2022-10-22T12:16:50;9.27;;;6.90;;
2213;SDS011;1113;42.018;23.986;2022-10-22T12:19:23;11.97;;;6.70;;
2213;SDS011;1113;42.018;23.986;2022-10-22T12:21:53;12.87;;;6.90;;
2213;SDS011;1113;42.018;23.986;2022-10-22T12:24:23;7.67;;;6.77;;
2213;SDS011;1113;42.018;23.986;2022-10-22T12:26:52;9.03;;;6.80;;
2213;SDS011;1113;42.018;23.986;2022-10-22T12:29:20;7.13;;;6.43;;
2213;SDS011;1113;42.018;23.986;2022-10-22T12:31:49;8.60;;;7.03;;
2213;SDS011;1113;42.018;23.986;2022-10-22T12:34:17;10.37;;;7.70;;
2213;SDS011;1113;42.018;23.986;2022-10-22T12:36:47;21.03;;;7.40;;
2213;SDS011;1113;42.018;23.986;2022-10-22T12:39:16;10.30;;;7.10;;
2213;SDS011;1113;42.018;23.986;2022-10-22T12:41:45;10.20;;;8.10;;
2213;SDS011;1113;42.018;23.986;2022-10-22T12:44:14;8.77;;;5.93;;
2213;SDS011;1113;42.018;23.986;2022-10-22T12:46:42;7.23;;;6.53;;
2213;SDS011;1113;42.018;23.986;2022-10-22T12:49:12;9.23;;;7.60;;
2213;SDS011;1113;42.018;23.986;2022-10-22T12:51:43;7.80;;;6.73;;
2213;SDS011;1113;42.018;23.986;2022-10-22T12:54:14;7.33;;;6.43;;
2213;SDS011;1113;42.018;23.986;2022-10-22T12:56:47;9.00;;;7.20;;
2213;SDS011;1113;42.018;23.986;2022-10-22T12:59:17;12.00;;;6.77;;
2213;SDS011;1113;42.018;23.986;2022-10-22T13:01:47;6.97;;;6.27;;
2213;SDS011;1113;42.018;23.986;2022-10-22T13:04:19;9.93;;;5.43;;
2213;SDS011;1113;42.018;23.986;2022-10-22T13:06:48;6.70;;;6.10;;
2213;SDS011;1113;42.018;23.986;2022-10-22T13:09:17;7.60;;;6.60;;
2213;SDS011;1113;42.018;23.986;2022-10-22T13:11:49;7.80;;;6.60;;
2213;SDS011;1113;42.018;23.986;2022-10-22T13:14:20;8.47;;;7.23;;
2213;SDS011;1113;42.018;23.986;2022-10-22T13:17:07;8.20;;;6.80;;
2213;SDS011;1113;42.018;23.986;2022-10-22T13:19:39;8.97;;;7.00;;
2213;SDS011;1113;42.018;23.986;2022-10-22T13:22:23;7.60;;;6.40;;
2213;SDS011;1113;42.018;23.986;2022-10-22T13:24:51;18.13;;;7.20;;
2213;SDS011;1113;42.018;23.986;2022-10-22T13:27:20;12.20;;;9.93;;
2213;SDS011;1113;42.018;23.986;2022-10-22T13:29:49;10.70;;;7.80;;
2213;SDS011;1113;42.018;23.986;2022-10-22T13:32:20;11.40;;;7.23;;
2213;SDS011;1113;42.018;23.986;2022-10-22T13:34:54;18.20;;;9.03;;
2213;SDS011;1113;42.018;23.986;2022-10-22T13:37:22;24.93;;;8.07;;
2213;SDS011;1113;42.018;23.986;2022-10-22T13:39:49;11.27;;;7.30;;
2213;SDS011;1113;42.018;23.986;2022-10-22T13:42:16;11.03;;;6.03;;
2213;SDS011;1113;42.018;23.986;2022-10-22T13:44:42;8.77;;;6.90;;
2213;SDS011;1113;42.018;23.986;2022-10-22T13:47:12;9.53;;;6.27;;
2213;SDS011;1113;42.018;23.986;2022-10-22T13:49:49;6.83;;;5.80;;
2213;SDS011;1113;42.018;23.986;2022-10-22T13:52:21;8.53;;;6.10;;
2213;SDS011;1113;42.018;23.986;2022-10-22T13:54:54;9.33;;;5.90;;
2213;SDS011;1113;42.018;23.986;2022-10-22T13:57:21;8.80;;;7.00;;
2213;SDS011;1113;42.018;23.986;2022-10-22T13:59:48;11.10;;;6.47;;
2213;SDS011;1113;42.018;23.986;2022-10-22T14:02:16;8.97;;;6.53;;
2213;SDS011;1113;42.018;23.986;2022-10-22T14:04:44;20.90;;;7.87;;
2213;SDS011;1113;42.018;23.986;2022-10-22T14:07:12;9.63;;;5.90;;
2213;SDS011;1113;42.018;23.986;2022-10-22T14:09:40;26.13;;;7.60;;
2213;SDS011;1113;42.018;23.986;2022-10-22T14:12:11;13.00;;;6.80;;
2213;SDS011;1113;42.018;23.986;2022-10-22T14:14:39;18.77;;;7.00;;
2213;SDS011;1113;42.018;23.986;2022-10-22T14:17:08;8.20;;;6.30;;
2213;SDS011;1113;42.018;23.986;2022-10-22T14:19:43;12.53;;;7.53;;
2213;SDS011;1113;42.018;23.986;2022-10-22T14:22:15;16.40;;;8.00;;
2213;SDS011;1113;42.018;23.986;2022-10-22T14:24:43;11.63;;;7.07;;
2213;SDS011;1113;42.018;23.986;2022-10-22T14:27:10;13.77;;;7.37;;
2213;SDS011;1113;42.018;23.986;2022-10-22T14:29:38;9.60;;;6.67;;
2213;SDS011;1113;42.018;23.986;2022-10-22T14:32:09;17.50;;;8.33;;
2213;SDS011;1113;42.018;23.986;2022-10-22T14:34:38;20.17;;;8.03;;
2213;SDS011;1113;42.018;23.986;2022-10-22T14:37:12;8.70;;;6.93;;
2213;SDS011;1113;42.018;23.986;2022-10-22T14:39:41;8.30;;;7.33;;
2213;SDS011;1113;42.018;23.986;2022-10-22T14:42:10;31.73;;;9.40;;
2213;SDS011;1113;42.018;23.986;2022-10-22T14:44:38;12.17;;;6.60;;
2213;SDS011;1113;42.018;23.986;2022-10-22T14:47:04;17.40;;;7.17;;
2213;SDS011;1113;42.018;23.986;2022-10-22T14:49:31;14.37;;;6.17;;
2213;SDS011;1113;42.018;23.986;2022-10-22T14:51:58;41.43;;;8.70;;
2213;SDS011;1113;42.018;23.986;2022-10-22T14:54:26;14.53;;;6.90;;
2213;SDS011;1113;42.018;23.986;2022-10-22T14:56:53;11.60;;;6.33;;
2213;SDS011;1113;42.018;23.986;2022-10-22T14:59:20;10.30;;;7.43;;
2213;SDS011;1113;42.018;23.986;2022-10-22T15:01:46;18.60;;;7.17;;
2213;SDS011;1113;42.018;23.986;2022-10-22T15:04:13;16.30;;;10.70;;